Rush City, Minnesota
Current Conditions -  °F | °C
As of 1:35 PM on Friday 28 Nov 2014 (Local Time) from KROS Reporting Station
Overcast Overcast  
Wind Chill: 10°   Ceiling: 1800
Heat Index: 18°   Visibility: 10mi
Dew Point: 12°   Wind: 6mph
Humidity: 75%   Direction: 130°SE
Pressure: 29.89"   Gusts: NA
Location:  45.69°N, 92.97°W
Report Text: KROS 281935Z AUTO 13005KT 10SM BKN018 OVC060 M08/M11 A2989 RMK AO2 T10761113
Loading
Personal Weather Stations






























Interactive Weather Map New forecast layout! Learn more

10-Day Weather Forecast

Advertisements
Track Severe Weather on mobile